sensor_id;sensor_type;location;lat;lon;timestamp;pressure;altitude;pressure_sealevel;temperature;humidity
66762;BME280;53672;48.176;16.338;2022-12-24T00:03:52;98323.06;;;6.93;100.00
66762;BME280;53672;48.176;16.338;2022-12-24T00:08:53;98336.34;;;7.13;100.00
66762;BME280;53672;48.176;16.338;2022-12-24T00:13:53;98321.75;;;7.68;100.00
66762;BME280;53672;48.176;16.338;2022-12-24T00:18:55;98324.84;;;8.38;100.00
66762;BME280;53672;48.176;16.338;2022-12-24T00:23:56;98325.94;;;8.60;100.00
66762;BME280;53672;48.176;16.338;2022-12-24T00:28:56;98336.91;;;8.64;100.00
66762;BME280;53672;48.176;16.338;2022-12-24T00:33:58;98347.00;;;8.72;100.00
66762;BME280;53672;48.176;16.338;2022-12-24T00:38:59;98352.31;;;8.77;100.00
66762;BME280;53672;48.176;16.338;2022-12-24T00:44:01;98363.41;;;8.71;100.00
66762;BME280;53672;48.176;16.338;2022-12-24T00:49:04;98365.97;;;8.81;100.00
66762;BME280;53672;48.176;16.338;2022-12-24T00:54:06;98381.75;;;8.87;100.00
66762;BME280;53672;48.176;16.338;2022-12-24T00:59:07;98381.28;;;8.80;100.00
66762;BME280;53672;48.176;16.338;2022-12-24T01:04:09;98388.59;;;8.98;100.00
66762;BME280;53672;48.176;16.338;2022-12-24T01:09:09;98380.72;;;9.07;100.00
66762;BME280;53672;48.176;16.338;2022-12-24T01:14:10;98376.78;;;9.18;100.00
66762;BME280;53672;48.176;16.338;2022-12-24T01:19:12;98367.13;;;9.36;100.00
66762;BME280;53672;48.176;16.338;2022-12-24T01:24:13;98381.16;;;9.33;100.00
66762;BME280;53672;48.176;16.338;2022-12-24T01:29:14;98377.59;;;9.37;100.00
66762;BME280;53672;48.176;16.338;2022-12-24T01:34:16;98381.00;;;9.43;100.00
66762;BME280;53672;48.176;16.338;2022-12-24T01:39:17;98375.19;;;9.36;100.00
66762;BME280;53672;48.176;16.338;2022-12-24T01:44:22;98356.91;;;9.38;100.00
66762;BME280;53672;48.176;16.338;2022-12-24T01:49:25;98344.44;;;9.60;100.00
66762;BME280;53672;48.176;16.338;2022-12-24T01:54:28;98355.34;;;9.69;100.00
66762;BME280;53672;48.176;16.338;2022-12-24T01:59:31;98367.09;;;9.73;100.00
66762;BME280;53672;48.176;16.338;2022-12-24T02:04:37;98378.06;;;9.77;100.00
66762;BME280;53672;48.176;16.338;2022-12-24T02:09:40;98370.03;;;9.90;100.00
66762;BME280;53672;48.176;16.338;2022-12-24T02:14:40;98364.00;;;9.98;100.00
66762;BME280;53672;48.176;16.338;2022-12-24T02:20:15;98359.75;;;10.11;100.00
66762;BME280;53672;48.176;16.338;2022-12-24T02:25:31;98369.94;;;10.14;100.00
66762;BME280;53672;48.176;16.338;2022-12-24T02:30:41;98365.91;;;10.30;100.00
66762;BME280;53672;48.176;16.338;2022-12-24T02:35:47;98337.97;;;10.40;100.00
66762;BME280;53672;48.176;16.338;2022-12-24T02:40:52;98342.94;;;10.19;100.00
66762;BME280;53672;48.176;16.338;2022-12-24T02:45:58;98336.22;;;10.03;100.00
66762;BME280;53672;48.176;16.338;2022-12-24T02:51:03;98345.25;;;10.07;100.00
66762;BME280;53672;48.176;16.338;2022-12-24T03:01:37;98349.22;;;9.82;100.00
66762;BME280;53672;48.176;16.338;2022-12-24T03:06:43;98358.81;;;9.69;100.00
66762;BME280;53672;48.176;16.338;2022-12-24T03:11:54;98369.13;;;9.81;100.00
66762;BME280;53672;48.176;16.338;2022-12-24T03:16:59;98371.03;;;9.81;100.00
66762;BME280;53672;48.176;16.338;2022-12-24T03:22:03;98391.53;;;9.77;100.00
66762;BME280;53672;48.176;16.338;2022-12-24T03:27:07;98381.22;;;9.65;100.00
66762;BME280;53672;48.176;16.338;2022-12-24T03:32:10;98404.06;;;9.67;100.00
66762;BME280;53672;48.176;16.338;2022-12-24T03:37:10;98421.06;;;9.63;100.00
66762;BME280;53672;48.176;16.338;2022-12-24T03:42:11;98431.31;;;9.61;100.00
66762;BME280;53672;48.176;16.338;2022-12-24T03:47:13;98450.75;;;9.58;100.00
66762;BME280;53672;48.176;16.338;2022-12-24T03:52:13;98432.69;;;9.96;100.00
66762;BME280;53672;48.176;16.338;2022-12-24T03:57:14;98451.31;;;9.92;100.00
66762;BME280;53672;48.176;16.338;2022-12-24T04:02:16;98443.47;;;9.96;100.00
66762;BME280;53672;48.176;16.338;2022-12-24T04:07:16;98440.41;;;10.02;100.00
66762;BME280;53672;48.176;16.338;2022-12-24T04:12:17;98440.88;;;10.04;100.00
66762;BME280;53672;48.176;16.338;2022-12-24T04:17:19;98439.22;;;10.08;100.00
66762;BME280;53672;48.176;16.338;2022-12-24T04:22:19;98424.06;;;10.12;100.00
66762;BME280;53672;48.176;16.338;2022-12-24T04:27:20;98446.78;;;10.06;100.00
66762;BME280;53672;48.176;16.338;2022-12-24T04:32:22;98443.47;;;9.96;100.00
66762;BME280;53672;48.176;16.338;2022-12-24T04:37:24;98457.34;;;9.84;99.47
66762;BME280;53672;48.176;16.338;2022-12-24T04:42:24;98447.19;;;9.81;96.74
66762;BME280;53672;48.176;16.338;2022-12-24T04:47:26;98467.81;;;9.67;96.95
66762;BME280;53672;48.176;16.338;2022-12-24T04:52:27;98467.81;;;9.67;93.58
66762;BME280;53672;48.176;16.338;2022-12-24T04:57:30;98485.81;;;9.72;92.24
66762;BME280;53672;48.176;16.338;2022-12-24T05:02:31;98489.16;;;9.82;91.62
66762;BME280;53672;48.176;16.338;2022-12-24T05:07:32;98495.63;;;9.81;91.61
66762;BME280;53672;48.176;16.338;2022-12-24T05:12:33;98505.34;;;9.77;91.48
66762;BME280;53672;48.176;16.338;2022-12-24T05:17:35;98510.50;;;9.74;91.21
66762;BME280;53672;48.176;16.338;2022-12-24T05:22:35;98512.47;;;9.68;91.89
66762;BME280;53672;48.176;16.338;2022-12-24T05:27:36;98524.84;;;9.69;90.56
66762;BME280;53672;48.176;16.338;2022-12-24T05:32:38;98530.06;;;9.60;93.52
66762;BME280;53672;48.176;16.338;2022-12-24T05:37:38;98542.34;;;9.66;90.52
66762;BME280;53672;48.176;16.338;2022-12-24T05:42:39;98523.97;;;9.55;93.01
66762;BME280;53672;48.176;16.338;2022-12-24T05:47:41;98552.56;;;9.46;91.28
66762;BME280;53672;48.176;16.338;2022-12-24T05:52:41;98547.19;;;9.46;89.09
66762;BME280;53672;48.176;16.338;2022-12-24T05:57:42;98555.84;;;9.43;87.85
66762;BME280;53672;48.176;16.338;2022-12-24T06:02:44;98574.50;;;9.34;88.98
66762;BME280;53672;48.176;16.338;2022-12-24T06:07:44;98602.94;;;9.40;89.70
66762;BME280;53672;48.176;16.338;2022-12-24T06:12:45;98609.47;;;9.58;89.69
66762;BME280;53672;48.176;16.338;2022-12-24T06:17:47;98605.41;;;9.60;89.53
66762;BME280;53672;48.176;16.338;2022-12-24T06:22:47;98601.97;;;9.55;92.58
66762;BME280;53672;48.176;16.338;2022-12-24T06:27:48;98602.97;;;9.59;88.41
66762;BME280;53672;48.176;16.338;2022-12-24T06:32:50;98614.78;;;9.63;86.58
66762;BME280;53672;48.176;16.338;2022-12-24T06:37:50;98609.00;;;9.51;87.33
66762;BME280;53672;48.176;16.338;2022-12-24T06:42:51;98615.78;;;9.48;85.61
66762;BME280;53672;48.176;16.338;2022-12-24T06:47:53;98612.88;;;9.40;85.66
66762;BME280;53672;48.176;16.338;2022-12-24T06:52:53;98613.78;;;9.30;86.11
66762;BME280;53672;48.176;16.338;2022-12-24T06:57:54;98625.69;;;9.24;85.57
66762;BME280;53672;48.176;16.338;2022-12-24T07:02:55;98637.09;;;9.11;87.08
66762;BME280;53672;48.176;16.338;2022-12-24T07:07:56;98650.22;;;9.18;85.05
66762;BME280;53672;48.176;16.338;2022-12-24T07:12:56;98651.22;;;9.27;88.40
66762;BME280;53672;48.176;16.338;2022-12-24T07:17:58;98654.69;;;9.27;85.38
66762;BME280;53672;48.176;16.338;2022-12-24T07:22:59;98673.31;;;9.18;86.20
66762;BME280;53672;48.176;16.338;2022-12-24T07:27:59;98680.50;;;9.28;84.26
66762;BME280;53672;48.176;16.338;2022-12-24T07:33:01;98693.09;;;9.33;84.65
66762;BME280;53672;48.176;16.338;2022-12-24T07:38:02;98710.75;;;9.44;83.51
66762;BME280;53672;48.176;16.338;2022-12-24T07:43:02;98708.66;;;9.36;86.82
66762;BME280;53672;48.176;16.338;2022-12-24T07:48:05;98725.13;;;9.29;86.32
66762;BME280;53672;48.176;16.338;2022-12-24T07:53:05;98726.50;;;9.27;85.99
66762;BME280;53672;48.176;16.338;2022-12-24T07:58:05;98743.44;;;9.27;86.73
66762;BME280;53672;48.176;16.338;2022-12-24T08:03:09;98757.84;;;9.41;87.63
66762;BME280;53672;48.176;16.338;2022-12-24T08:08:15;98775.03;;;9.74;84.96
66762;BME280;53672;48.176;16.338;2022-12-24T08:13:16;98766.25;;;9.92;83.90
66762;BME280;53672;48.176;16.338;2022-12-24T08:18:17;98778.69;;;10.17;82.40
66762;BME280;53672;48.176;16.338;2022-12-24T08:23:18;98788.44;;;10.08;81.93
66762;BME280;53672;48.176;16.338;2022-12-24T08:28:19;98803.63;;;9.99;82.93
66762;BME280;53672;48.176;16.338;2022-12-24T08:33:21;98813.81;;;10.54;81.25
66762;BME280;53672;48.176;16.338;2022-12-24T08:38:22;98821.16;;;11.47;76.08
66762;BME280;53672;48.176;16.338;2022-12-24T08:43:23;98829.13;;;14.06;66.90
66762;BME280;53672;48.176;16.338;2022-12-24T08:48:25;98837.28;;;17.15;55.24
66762;BME280;53672;48.176;16.338;2022-12-24T08:53:25;98847.06;;;17.58;53.97
66762;BME280;53672;48.176;16.338;2022-12-24T08:58:26;98854.94;;;19.06;47.63
66762;BME280;53672;48.176;16.338;2022-12-24T09:03:28;98851.34;;;16.50;56.46
66762;BME280;53672;48.176;16.338;2022-12-24T09:08:28;98860.75;;;15.89;57.41
66762;BME280;53672;48.176;16.338;2022-12-24T09:13:29;98870.88;;;18.56;49.80
66762;BME280;53672;48.176;16.338;2022-12-24T09:18:31;98872.97;;;22.29;40.08
66762;BME280;53672;48.176;16.338;2022-12-24T09:23:33;98871.94;;;24.14;36.02
66762;BME280;53672;48.176;16.338;2022-12-24T09:28:34;98874.19;;;24.42;34.25
66762;BME280;53672;48.176;16.338;2022-12-24T09:33:37;98863.44;;;24.30;34.41
66762;BME280;53672;48.176;16.338;2022-12-24T09:38:39;98859.19;;;26.06;32.06
66762;BME280;53672;48.176;16.338;2022-12-24T09:43:45;98857.00;;;26.93;31.61
66762;BME280;53672;48.176;16.338;2022-12-24T09:48:50;98863.34;;;27.18;29.07
66762;BME280;53672;48.176;16.338;2022-12-24T09:53:54;98869.22;;;27.38;29.11
66762;BME280;53672;48.176;16.338;2022-12-24T09:58:58;98876.59;;;27.98;28.01
66762;BME280;53672;48.176;16.338;2022-12-24T10:04:02;98877.06;;;28.62;26.45
66762;BME280;53672;48.176;16.338;2022-12-24T10:09:10;98876.47;;;28.88;27.55
66762;BME280;53672;48.176;16.338;2022-12-24T10:14:24;98890.00;;;28.13;26.88
66762;BME280;53672;48.176;16.338;2022-12-24T10:19:40;98880.28;;;23.35;35.68
66762;BME280;53672;48.176;16.338;2022-12-24T10:24:48;98881.97;;;21.72;39.87
66762;BME280;53672;48.176;16.338;2022-12-24T10:29:56;98909.84;;;24.28;36.70
66762;BME280;53672;48.176;16.338;2022-12-24T10:35:18;98887.00;;;27.55;27.41
66762;BME280;53672;48.176;16.338;2022-12-24T10:40:28;98898.34;;;28.03;26.34
66762;BME280;53672;48.176;16.338;2022-12-24T10:45:36;98879.06;;;28.58;27.10
66762;BME280;53672;48.176;16.338;2022-12-24T10:50:42;98896.09;;;28.56;25.79
66762;BME280;53672;48.176;16.338;2022-12-24T10:55:49;98898.59;;;28.37;27.13
66762;BME280;53672;48.176;16.338;2022-12-24T11:00:51;98877.75;;;28.00;26.51
66762;BME280;53672;48.176;16.338;2022-12-24T11:06:06;98880.31;;;27.52;27.66
66762;BME280;53672;48.176;16.338;2022-12-24T11:11:09;98891.97;;;28.06;28.78
66762;BME280;53672;48.176;16.338;2022-12-24T11:16:24;98884.72;;;28.40;26.65
66762;BME280;53672;48.176;16.338;2022-12-24T11:21:30;98884.66;;;28.47;26.64
66762;BME280;53672;48.176;16.338;2022-12-24T11:26:31;98874.75;;;27.56;28.11
66762;BME280;53672;48.176;16.338;2022-12-24T11:31:32;98885.94;;;24.39;30.90
66762;BME280;53672;48.176;16.338;2022-12-24T11:36:34;98876.66;;;24.54;30.63
66762;BME280;53672;48.176;16.338;2022-12-24T11:41:35;98883.81;;;22.03;35.84
66762;BME280;53672;48.176;16.338;2022-12-24T11:46:38;98878.66;;;18.12;44.13
66762;BME280;53672;48.176;16.338;2022-12-24T11:51:57;98900.84;;;16.27;54.95
66762;BME280;53672;48.176;16.338;2022-12-24T11:57:00;98894.53;;;15.06;53.73
66762;BME280;53672;48.176;16.338;2022-12-24T12:02:11;98884.63;;;14.31;57.22
66762;BME280;53672;48.176;16.338;2022-12-24T12:07:19;98893.88;;;13.50;60.65
66762;BME280;53672;48.176;16.338;2022-12-24T12:12:24;98895.34;;;12.93;62.52
66762;BME280;53672;48.176;16.338;2022-12-24T12:17:29;98903.66;;;12.69;64.82
66762;BME280;53672;48.176;16.338;2022-12-24T12:22:39;98906.75;;;12.76;65.44
66762;BME280;53672;48.176;16.338;2022-12-24T12:27:45;98933.50;;;12.78;64.92
66762;BME280;53672;48.176;16.338;2022-12-24T12:32:50;98928.81;;;12.37;66.64
66762;BME280;53672;48.176;16.338;2022-12-24T12:38:00;98938.47;;;12.11;66.84
66762;BME280;53672;48.176;16.338;2022-12-24T12:43:08;98928.94;;;12.32;66.46
66762;BME280;53672;48.176;16.338;2022-12-24T12:48:25;98939.69;;;12.64;64.93
66762;BME280;53672;48.176;16.338;2022-12-24T12:53:41;98939.41;;;12.66;62.98
66762;BME280;53672;48.176;16.338;2022-12-24T12:58:45;98964.78;;;12.84;62.37
66762;BME280;53672;48.176;16.338;2022-12-24T13:04:25;98973.38;;;12.86;62.89
66762;BME280;53672;48.176;16.338;2022-12-24T13:09:53;98977.97;;;12.85;62.59
66762;BME280;53672;48.176;16.338;2022-12-24T13:15:10;99001.41;;;12.76;63.08
66762;BME280;53672;48.176;16.338;2022-12-24T13:20:23;98998.41;;;12.78;63.56
66762;BME280;53672;48.176;16.338;2022-12-24T13:25:30;99012.63;;;12.69;63.94
66762;BME280;53672;48.176;16.338;2022-12-24T13:30:38;99026.53;;;12.63;64.74
66762;BME280;53672;48.176;16.338;2022-12-24T13:35:57;99035.03;;;12.56;64.13
66762;BME280;53672;48.176;16.338;2022-12-24T13:41:37;99023.00;;;12.30;66.66
66762;BME280;53672;48.176;16.338;2022-12-24T13:46:56;99018.91;;;11.95;68.71
66762;BME280;53672;48.176;16.338;2022-12-24T13:52:20;99030.63;;;11.67;68.32
66762;BME280;53672;48.176;16.338;2022-12-24T13:57:30;99045.72;;;11.44;69.74
66762;BME280;53672;48.176;16.338;2022-12-24T14:02:35;99036.94;;;11.34;70.03
66762;BME280;53672;48.176;16.338;2022-12-24T14:07:44;99054.47;;;11.12;72.28
66762;BME280;53672;48.176;16.338;2022-12-24T14:12:49;99056.50;;;10.97;72.60
66762;BME280;53672;48.176;16.338;2022-12-24T14:17:50;99078.81;;;10.74;73.78
66762;BME280;53672;48.176;16.338;2022-12-24T14:22:50;99094.84;;;10.55;75.06
66762;BME280;53672;48.176;16.338;2022-12-24T14:27:55;99096.84;;;10.44;74.45
66762;BME280;53672;48.176;16.338;2022-12-24T14:32:58;99107.16;;;10.32;74.86
66762;BME280;53672;48.176;16.338;2022-12-24T14:38:01;99095.09;;;10.20;75.16
66762;BME280;53672;48.176;16.338;2022-12-24T14:43:09;99087.63;;;10.01;77.49
66762;BME280;53672;48.176;16.338;2022-12-24T14:48:18;99102.81;;;9.82;77.88
66762;BME280;53672;48.176;16.338;2022-12-24T14:53:30;99111.44;;;9.79;77.01
66762;BME280;53672;48.176;16.338;2022-12-24T14:58:37;99116.88;;;9.64;78.29
66762;BME280;53672;48.176;16.338;2022-12-24T15:03:38;99132.75;;;9.60;78.19
66762;BME280;53672;48.176;16.338;2022-12-24T15:08:42;99150.25;;;9.53;78.46
66762;BME280;53672;48.176;16.338;2022-12-24T15:13:47;99144.34;;;9.51;80.01
66762;BME280;53672;48.176;16.338;2022-12-24T15:18:51;99153.50;;;9.40;79.97
66762;BME280;53672;48.176;16.338;2022-12-24T15:23:53;99153.53;;;9.25;81.15
66762;BME280;53672;48.176;16.338;2022-12-24T15:28:57;99158.13;;;9.24;81.04
66762;BME280;53672;48.176;16.338;2022-12-24T15:33:58;99155.16;;;9.15;82.65
66762;BME280;53672;48.176;16.338;2022-12-24T15:39:02;99155.72;;;9.07;81.39
66762;BME280;53672;48.176;16.338;2022-12-24T15:44:04;99164.28;;;9.04;82.05
66762;BME280;53672;48.176;16.338;2022-12-24T15:49:04;99168.34;;;9.12;80.82
66762;BME280;53672;48.176;16.338;2022-12-24T15:54:13;99179.91;;;9.28;80.42
66762;BME280;53672;48.176;16.338;2022-12-24T15:59:26;99176.38;;;9.32;79.13
66762;BME280;53672;48.176;16.338;2022-12-24T16:04:27;99180.94;;;9.32;79.07
66762;BME280;53672;48.176;16.338;2022-12-24T16:09:39;99191.16;;;9.25;79.18
66762;BME280;53672;48.176;16.338;2022-12-24T16:14:45;99201.16;;;9.24;79.56
66762;BME280;53672;48.176;16.338;2022-12-24T16:19:49;99210.56;;;9.06;80.22
66762;BME280;53672;48.176;16.338;2022-12-24T16:24:50;99219.13;;;8.98;80.74
66762;BME280;53672;48.176;16.338;2022-12-24T16:29:51;99218.59;;;8.91;81.08
66762;BME280;53672;48.176;16.338;2022-12-24T16:34:52;99210.53;;;8.76;82.16
66762;BME280;53672;48.176;16.338;2022-12-24T16:39:53;99222.59;;;8.69;82.64
66762;BME280;53672;48.176;16.338;2022-12-24T16:44:55;99229.81;;;8.58;83.15
66762;BME280;53672;48.176;16.338;2022-12-24T16:49:56;99237.31;;;8.51;83.68
66762;BME280;53672;48.176;16.338;2022-12-24T16:54:56;99245.94;;;8.58;84.16
66762;BME280;53672;48.176;16.338;2022-12-24T16:59:58;99236.84;;;8.69;82.80
66762;BME280;53672;48.176;16.338;2022-12-24T17:04:59;99247.34;;;8.76;81.86
66762;BME280;53672;48.176;16.338;2022-12-24T17:09:59;99251.31;;;8.63;82.50
66762;BME280;53672;48.176;16.338;2022-12-24T17:15:01;99258.03;;;8.55;82.47
66762;BME280;53672;48.176;16.338;2022-12-24T17:20:03;99273.31;;;8.50;83.15
66762;BME280;53672;48.176;16.338;2022-12-24T17:25:04;99272.47;;;8.44;83.89
66762;BME280;53672;48.176;16.338;2022-12-24T17:30:08;99278.66;;;8.50;83.89
66762;BME280;53672;48.176;16.338;2022-12-24T17:35:09;99289.03;;;8.93;82.37
66762;BME280;53672;48.176;16.338;2022-12-24T17:40:10;99283.13;;;9.11;82.52
66762;BME280;53672;48.176;16.338;2022-12-24T17:45:12;99294.19;;;9.35;80.30
66762;BME280;53672;48.176;16.338;2022-12-24T17:50:13;99292.31;;;9.41;80.26
66762;BME280;53672;48.176;16.338;2022-12-24T17:55:13;99295.25;;;9.39;80.25
66762;BME280;53672;48.176;16.338;2022-12-24T18:00:16;99298.78;;;9.35;79.85
66762;BME280;53672;48.176;16.338;2022-12-24T18:05:17;99299.31;;;9.27;81.66
66762;BME280;53672;48.176;16.338;2022-12-24T18:10:17;99303.34;;;9.24;79.89
66762;BME280;53672;48.176;16.338;2022-12-24T18:15:20;99304.41;;;9.23;79.72
66762;BME280;53672;48.176;16.338;2022-12-24T18:20:21;99309.00;;;9.28;79.65
66762;BME280;53672;48.176;16.338;2022-12-24T18:25:21;99297.69;;;9.31;80.03
66762;BME280;53672;48.176;16.338;2022-12-24T18:30:23;99304.69;;;9.37;79.36
66762;BME280;53672;48.176;16.338;2022-12-24T18:35:24;99312.25;;;9.45;79.30
66762;BME280;53672;48.176;16.338;2022-12-24T18:40:24;99318.66;;;9.59;77.69
66762;BME280;53672;48.176;16.338;2022-12-24T18:45:26;99327.84;;;9.58;78.07
66762;BME280;53672;48.176;16.338;2022-12-24T18:50:27;99339.13;;;9.60;78.00
66762;BME280;53672;48.176;16.338;2022-12-24T18:55:27;99351.00;;;9.79;76.55
66762;BME280;53672;48.176;16.338;2022-12-24T19:00:29;99358.50;;;9.87;76.26
66762;BME280;53672;48.176;16.338;2022-12-24T19:05:30;99362.53;;;9.90;75.91
66762;BME280;53672;48.176;16.338;2022-12-24T19:10:30;99367.41;;;9.88;75.88
66762;BME280;53672;48.176;16.338;2022-12-24T19:15:32;99367.94;;;9.85;76.67
66762;BME280;53672;48.176;16.338;2022-12-24T19:20:37;99376.81;;;9.90;77.61
66762;BME280;53672;48.176;16.338;2022-12-24T19:25:38;99381.16;;;9.86;78.35
66762;BME280;53672;48.176;16.338;2022-12-24T19:30:40;99385.19;;;9.79;78.84
66762;BME280;53672;48.176;16.338;2022-12-24T19:35:41;99392.16;;;9.75;79.43
66762;BME280;53672;48.176;16.338;2022-12-24T19:40:42;99401.06;;;9.75;78.57
66762;BME280;53672;48.176;16.338;2022-12-24T19:45:43;99406.97;;;9.77;78.30
66762;BME280;53672;48.176;16.338;2022-12-24T19:50:44;99407.53;;;9.79;78.40
66762;BME280;53672;48.176;16.338;2022-12-24T19:55:44;99413.16;;;9.78;78.74
66762;BME280;53672;48.176;16.338;2022-12-24T20:00:46;99417.19;;;9.75;77.79
66762;BME280;53672;48.176;16.338;2022-12-24T20:05:47;99422.03;;;9.78;77.19
66762;BME280;53672;48.176;16.338;2022-12-24T20:10:47;99436.03;;;9.75;77.14
66762;BME280;53672;48.176;16.338;2022-12-24T20:15:49;99443.03;;;9.76;76.64
66762;BME280;53672;48.176;16.338;2022-12-24T20:20:50;99445.22;;;9.79;75.89
66762;BME280;53672;48.176;16.338;2022-12-24T20:25:55;99440.34;;;9.81;76.19
66762;BME280;53672;48.176;16.338;2022-12-24T20:30:57;99442.50;;;9.84;76.35
66762;BME280;53672;48.176;16.338;2022-12-24T20:36:00;99437.66;;;9.81;76.90
66762;BME280;53672;48.176;16.338;2022-12-24T20:41:01;99451.66;;;9.78;76.62
66762;BME280;53672;48.176;16.338;2022-12-24T20:46:03;99451.63;;;9.73;77.31
66762;BME280;53672;48.176;16.338;2022-12-24T20:51:04;99444.66;;;9.72;76.93
66762;BME280;53672;48.176;16.338;2022-12-24T20:56:06;99463.22;;;9.68;76.77
66762;BME280;53672;48.176;16.338;2022-12-24T21:01:09;99459.16;;;9.66;76.78
66762;BME280;53672;48.176;16.338;2022-12-24T21:06:10;99453.50;;;9.67;76.70
66762;BME280;53672;48.176;16.338;2022-12-24T21:11:13;99456.47;;;9.66;76.58
66762;BME280;53672;48.176;16.338;2022-12-24T21:16:15;99453.78;;;9.66;76.58
66762;BME280;53672;48.176;16.338;2022-12-24T21:21:15;99460.25;;;9.65;76.87
66762;BME280;53672;48.176;16.338;2022-12-24T21:26:16;99456.47;;;9.61;77.09
66762;BME280;53672;48.176;16.338;2022-12-24T21:31:18;99463.44;;;9.57;77.00
66762;BME280;53672;48.176;16.338;2022-12-24T21:36:18;99467.50;;;9.54;77.21
66762;BME280;53672;48.176;16.338;2022-12-24T21:41:24;99469.38;;;9.54;76.96
66762;BME280;53672;48.176;16.338;2022-12-24T21:46:25;99465.03;;;9.53;76.77
66762;BME280;53672;48.176;16.338;2022-12-24T21:51:26;99453.75;;;9.51;77.30
66762;BME280;53672;48.176;16.338;2022-12-24T21:56:27;99453.22;;;9.54;76.32
66762;BME280;53672;48.176;16.338;2022-12-24T22:01:29;99440.28;;;9.56;76.05
66762;BME280;53672;48.176;16.338;2022-12-24T22:06:29;99441.09;;;9.56;76.70
66762;BME280;53672;48.176;16.338;2022-12-24T22:11:30;99446.22;;;9.53;77.42
66762;BME280;53672;48.176;16.338;2022-12-24T22:16:32;99444.88;;;9.50;77.55
66762;BME280;53672;48.176;16.338;2022-12-24T22:21:32;99438.16;;;9.48;78.17
66762;BME280;53672;48.176;16.338;2022-12-24T22:26:33;99444.84;;;9.45;79.19
66762;BME280;53672;48.176;16.338;2022-12-24T22:31:35;99457.75;;;9.43;79.82
66762;BME280;53672;48.176;16.338;2022-12-24T22:36:35;99451.03;;;9.41;80.21
66762;BME280;53672;48.176;16.338;2022-12-24T22:41:36;99458.53;;;9.39;81.37
66762;BME280;53672;48.176;16.338;2022-12-24T22:46:37;99452.09;;;9.35;81.98
66762;BME280;53672;48.176;16.338;2022-12-24T22:51:38;99458.78;;;9.32;81.78
66762;BME280;53672;48.176;16.338;2022-12-24T22:56:39;99455.81;;;9.29;82.16
66762;BME280;53672;48.176;16.338;2022-12-24T23:01:43;99466.88;;;9.27;82.00
66762;BME280;53672;48.176;16.338;2022-12-24T23:06:44;99471.97;;;9.24;82.36
66762;BME280;53672;48.176;16.338;2022-12-24T23:11:44;99478.41;;;9.23;82.20
66762;BME280;53672;48.176;16.338;2022-12-24T23:16:46;99482.44;;;9.20;82.41
66762;BME280;53672;48.176;16.338;2022-12-24T23:21:46;99496.69;;;9.21;81.59
66762;BME280;53672;48.176;16.338;2022-12-24T23:26:47;99495.06;;;9.20;82.35
66762;BME280;53672;48.176;16.338;2022-12-24T23:31:49;99492.38;;;9.20;81.92
66762;BME280;53672;48.176;16.338;2022-12-24T23:36:49;99502.59;;;9.18;82.61
66762;BME280;53672;48.176;16.338;2022-12-24T23:41:50;99515.47;;;9.15;83.66
66762;BME280;53672;48.176;16.338;2022-12-24T23:46:52;99507.94;;;9.12;83.96
66762;BME280;53672;48.176;16.338;2022-12-24T23:51:52;99510.63;;;9.12;86.05
66762;BME280;53672;48.176;16.338;2022-12-24T23:56:53;99506.00;;;9.08;85.61
